sensor_id;sensor_type;location;lat;lon;timestamp;P1;durP1;ratioP1;P2;durP2;ratioP2
28836;SDS011;50669;50.982;11.022;2023-11-19T00:01:24;0.98;;;0.85;;
28836;SDS011;50669;50.982;11.022;2023-11-19T00:03:50;1.00;;;0.80;;
28836;SDS011;50669;50.982;11.022;2023-11-19T00:06:15;0.98;;;0.80;;
28836;SDS011;50669;50.982;11.022;2023-11-19T00:08:43;1.00;;;0.70;;
28836;SDS011;50669;50.982;11.022;2023-11-19T00:11:09;0.70;;;0.70;;
28836;SDS011;50669;50.982;11.022;2023-11-19T00:13:36;1.38;;;0.80;;
28836;SDS011;50669;50.982;11.022;2023-11-19T00:16:02;1.10;;;0.80;;
28836;SDS011;50669;50.982;11.022;2023-11-19T00:18:29;1.35;;;0.93;;
28836;SDS011;50669;50.982;11.022;2023-11-19T00:20:57;1.30;;;0.93;;
28836;SDS011;50669;50.982;11.022;2023-11-19T00:23:27;0.88;;;0.82;;
28836;SDS011;50669;50.982;11.022;2023-11-19T00:25:52;1.40;;;0.90;;
28836;SDS011;50669;50.982;11.022;2023-11-19T00:28:23;1.02;;;0.80;;
28836;SDS011;50669;50.982;11.022;2023-11-19T00:30:49;0.90;;;0.80;;
28836;SDS011;50669;50.982;11.022;2023-11-19T00:33:17;1.00;;;0.90;;
28836;SDS011;50669;50.982;11.022;2023-11-19T00:35:45;1.00;;;0.80;;
28836;SDS011;50669;50.982;11.022;2023-11-19T00:38:10;1.05;;;0.85;;
28836;SDS011;50669;50.982;11.022;2023-11-19T00:40:36;1.08;;;0.90;;
28836;SDS011;50669;50.982;11.022;2023-11-19T00:43:01;0.88;;;0.70;;
28836;SDS011;50669;50.982;11.022;2023-11-19T00:45:29;0.95;;;0.85;;
28836;SDS011;50669;50.982;11.022;2023-11-19T00:47:55;1.00;;;0.90;;
28836;SDS011;50669;50.982;11.022;2023-11-19T00:50:21;1.30;;;1.00;;
28836;SDS011;50669;50.982;11.022;2023-11-19T00:52:50;1.10;;;0.93;;
28836;SDS011;50669;50.982;11.022;2023-11-19T00:55:16;1.27;;;1.00;;
28836;SDS011;50669;50.982;11.022;2023-11-19T00:57:42;1.10;;;0.80;;
28836;SDS011;50669;50.982;11.022;2023-11-19T01:00:11;1.10;;;0.90;;
28836;SDS011;50669;50.982;11.022;2023-11-19T01:02:45;1.38;;;1.10;;
28836;SDS011;50669;50.982;11.022;2023-11-19T01:05:11;1.20;;;0.90;;
28836;SDS011;50669;50.982;11.022;2023-11-19T01:07:39;0.85;;;0.70;;
28836;SDS011;50669;50.982;11.022;2023-11-19T01:10:08;0.73;;;0.70;;
28836;SDS011;50669;50.982;11.022;2023-11-19T01:12:40;0.93;;;0.70;;
28836;SDS011;50669;50.982;11.022;2023-11-19T01:15:09;0.95;;;0.70;;
28836;SDS011;50669;50.982;11.022;2023-11-19T01:17:38;1.17;;;0.98;;
28836;SDS011;50669;50.982;11.022;2023-11-19T01:20:04;1.08;;;0.70;;
28836;SDS011;50669;50.982;11.022;2023-11-19T01:22:32;1.17;;;1.08;;
28836;SDS011;50669;50.982;11.022;2023-11-19T01:25:02;1.20;;;1.10;;
28836;SDS011;50669;50.982;11.022;2023-11-19T01:27:30;0.80;;;0.68;;
28836;SDS011;50669;50.982;11.022;2023-11-19T01:29:56;0.85;;;0.75;;
28836;SDS011;50669;50.982;11.022;2023-11-19T01:32:25;1.23;;;0.98;;
28836;SDS011;50669;50.982;11.022;2023-11-19T01:34:51;0.77;;;0.70;;
28836;SDS011;50669;50.982;11.022;2023-11-19T01:37:16;0.98;;;0.70;;
28836;SDS011;50669;50.982;11.022;2023-11-19T01:39:45;0.93;;;0.77;;
28836;SDS011;50669;50.982;11.022;2023-11-19T01:42:11;0.82;;;0.82;;
28836;SDS011;50669;50.982;11.022;2023-11-19T01:44:40;1.00;;;0.90;;
28836;SDS011;50669;50.982;11.022;2023-11-19T01:47:06;1.23;;;0.90;;
28836;SDS011;50669;50.982;11.022;2023-11-19T01:49:35;0.60;;;0.60;;
28836;SDS011;50669;50.982;11.022;2023-11-19T01:52:03;1.05;;;0.77;;
28836;SDS011;50669;50.982;11.022;2023-11-19T01:54:29;0.93;;;0.77;;
28836;SDS011;50669;50.982;11.022;2023-11-19T01:56:55;0.82;;;0.77;;
28836;SDS011;50669;50.982;11.022;2023-11-19T01:59:22;1.35;;;0.90;;
28836;SDS011;50669;50.982;11.022;2023-11-19T02:01:51;0.93;;;0.85;;
28836;SDS011;50669;50.982;11.022;2023-11-19T02:04:20;0.80;;;0.70;;
28836;SDS011;50669;50.982;11.022;2023-11-19T02:06:47;1.08;;;0.70;;
28836;SDS011;50669;50.982;11.022;2023-11-19T02:09:15;0.90;;;0.77;;
28836;SDS011;50669;50.982;11.022;2023-11-19T02:11:44;0.90;;;0.70;;
28836;SDS011;50669;50.982;11.022;2023-11-19T02:14:12;0.77;;;0.77;;
28836;SDS011;50669;50.982;11.022;2023-11-19T02:16:38;0.75;;;0.75;;
28836;SDS011;50669;50.982;11.022;2023-11-19T02:19:04;1.00;;;0.90;;
28836;SDS011;50669;50.982;11.022;2023-11-19T02:21:31;0.90;;;0.80;;
28836;SDS011;50669;50.982;11.022;2023-11-19T02:23:57;1.05;;;0.93;;
28836;SDS011;50669;50.982;11.022;2023-11-19T02:28:53;1.17;;;0.80;;
28836;SDS011;50669;50.982;11.022;2023-11-19T02:31:19;0.80;;;0.70;;
28836;SDS011;50669;50.982;11.022;2023-11-19T02:33:45;1.08;;;0.80;;
28836;SDS011;50669;50.982;11.022;2023-11-19T02:36:15;1.02;;;0.93;;
28836;SDS011;50669;50.982;11.022;2023-11-19T02:38:41;0.75;;;0.68;;
28836;SDS011;50669;50.982;11.022;2023-11-19T02:41:10;0.70;;;0.70;;
28836;SDS011;50669;50.982;11.022;2023-11-19T02:43:36;1.10;;;0.88;;
28836;SDS011;50669;50.982;11.022;2023-11-19T02:46:04;1.02;;;0.82;;
28836;SDS011;50669;50.982;11.022;2023-11-19T02:48:32;1.05;;;0.80;;
28836;SDS011;50669;50.982;11.022;2023-11-19T02:51:01;0.90;;;0.80;;
28836;SDS011;50669;50.982;11.022;2023-11-19T02:53:32;1.20;;;1.00;;
28836;SDS011;50669;50.982;11.022;2023-11-19T02:55:57;0.80;;;0.80;;
28836;SDS011;50669;50.982;11.022;2023-11-19T02:58:33;1.30;;;0.93;;
28836;SDS011;50669;50.982;11.022;2023-11-19T03:00:59;0.77;;;0.70;;
28836;SDS011;50669;50.982;11.022;2023-11-19T03:03:37;1.45;;;0.90;;
28836;SDS011;50669;50.982;11.022;2023-11-19T03:06:08;1.00;;;0.65;;
28836;SDS011;50669;50.982;11.022;2023-11-19T03:08:35;1.08;;;0.90;;
28836;SDS011;50669;50.982;11.022;2023-11-19T03:11:01;1.00;;;0.77;;
28836;SDS011;50669;50.982;11.022;2023-11-19T03:13:29;0.88;;;0.75;;
28836;SDS011;50669;50.982;11.022;2023-11-19T03:15:55;1.30;;;0.88;;
28836;SDS011;50669;50.982;11.022;2023-11-19T03:18:20;1.35;;;0.80;;
28836;SDS011;50669;50.982;11.022;2023-11-19T03:20:48;0.93;;;0.80;;
28836;SDS011;50669;50.982;11.022;2023-11-19T03:23:14;1.25;;;0.88;;
28836;SDS011;50669;50.982;11.022;2023-11-19T03:25:40;0.95;;;0.73;;
28836;SDS011;50669;50.982;11.022;2023-11-19T03:28:08;0.95;;;0.77;;
28836;SDS011;50669;50.982;11.022;2023-11-19T03:30:39;0.88;;;0.80;;
28836;SDS011;50669;50.982;11.022;2023-11-19T03:33:07;0.73;;;0.70;;
28836;SDS011;50669;50.982;11.022;2023-11-19T03:35:35;1.08;;;0.90;;
28836;SDS011;50669;50.982;11.022;2023-11-19T03:38:01;1.00;;;0.80;;
28836;SDS011;50669;50.982;11.022;2023-11-19T03:40:29;1.02;;;0.80;;
28836;SDS011;50669;50.982;11.022;2023-11-19T03:42:57;1.00;;;0.77;;
28836;SDS011;50669;50.982;11.022;2023-11-19T03:45:25;0.90;;;0.73;;
28836;SDS011;50669;50.982;11.022;2023-11-19T03:47:51;0.95;;;0.88;;
28836;SDS011;50669;50.982;11.022;2023-11-19T03:50:17;1.08;;;0.85;;
28836;SDS011;50669;50.982;11.022;2023-11-19T03:52:45;1.00;;;0.77;;
28836;SDS011;50669;50.982;11.022;2023-11-19T03:55:11;0.80;;;0.70;;
28836;SDS011;50669;50.982;11.022;2023-11-19T03:57:37;0.90;;;0.70;;
28836;SDS011;50669;50.982;11.022;2023-11-19T04:00:03;1.23;;;0.88;;
28836;SDS011;50669;50.982;11.022;2023-11-19T04:02:39;0.82;;;0.73;;
28836;SDS011;50669;50.982;11.022;2023-11-19T04:05:09;1.10;;;0.73;;
28836;SDS011;50669;50.982;11.022;2023-11-19T04:07:37;0.88;;;0.80;;
28836;SDS011;50669;50.982;11.022;2023-11-19T04:10:03;1.15;;;0.93;;
28836;SDS011;50669;50.982;11.022;2023-11-19T04:12:29;1.00;;;0.70;;
28836;SDS011;50669;50.982;11.022;2023-11-19T04:14:55;1.10;;;0.90;;
28836;SDS011;50669;50.982;11.022;2023-11-19T04:17:21;1.05;;;0.80;;
28836;SDS011;50669;50.982;11.022;2023-11-19T04:19:48;1.30;;;0.75;;
28836;SDS011;50669;50.982;11.022;2023-11-19T04:22:15;1.13;;;0.80;;
28836;SDS011;50669;50.982;11.022;2023-11-19T04:24:43;0.80;;;0.73;;
28836;SDS011;50669;50.982;11.022;2023-11-19T04:27:10;1.30;;;0.93;;
28836;SDS011;50669;50.982;11.022;2023-11-19T04:29:36;1.00;;;0.70;;
28836;SDS011;50669;50.982;11.022;2023-11-19T04:32:02;0.90;;;0.80;;
28836;SDS011;50669;50.982;11.022;2023-11-19T04:34:27;0.82;;;0.70;;
28836;SDS011;50669;50.982;11.022;2023-11-19T04:36:55;1.35;;;0.90;;
28836;SDS011;50669;50.982;11.022;2023-11-19T04:39:23;1.65;;;0.80;;
28836;SDS011;50669;50.982;11.022;2023-11-19T04:41:49;1.20;;;0.93;;
28836;SDS011;50669;50.982;11.022;2023-11-19T04:44:17;1.67;;;0.93;;
28836;SDS011;50669;50.982;11.022;2023-11-19T04:46:48;0.98;;;0.77;;
28836;SDS011;50669;50.982;11.022;2023-11-19T04:49:16;0.77;;;0.73;;
28836;SDS011;50669;50.982;11.022;2023-11-19T04:51:43;1.10;;;1.00;;
28836;SDS011;50669;50.982;11.022;2023-11-19T04:54:12;0.80;;;0.75;;
28836;SDS011;50669;50.982;11.022;2023-11-19T04:56:40;1.02;;;0.80;;
28836;SDS011;50669;50.982;11.022;2023-11-19T04:59:12;0.80;;;0.77;;
28836;SDS011;50669;50.982;11.022;2023-11-19T05:01:38;1.10;;;0.95;;
28836;SDS011;50669;50.982;11.022;2023-11-19T05:04:07;0.70;;;0.70;;
28836;SDS011;50669;50.982;11.022;2023-11-19T05:06:35;0.93;;;0.70;;
28836;SDS011;50669;50.982;11.022;2023-11-19T05:09:04;1.25;;;1.00;;
28836;SDS011;50669;50.982;11.022;2023-11-19T05:11:32;1.00;;;0.77;;
28836;SDS011;50669;50.982;11.022;2023-11-19T05:14:04;1.20;;;0.70;;
28836;SDS011;50669;50.982;11.022;2023-11-19T05:16:30;1.27;;;0.90;;
28836;SDS011;50669;50.982;11.022;2023-11-19T05:19:00;0.90;;;0.80;;
28836;SDS011;50669;50.982;11.022;2023-11-19T05:21:28;1.10;;;0.70;;
28836;SDS011;50669;50.982;11.022;2023-11-19T05:23:54;1.23;;;0.82;;
28836;SDS011;50669;50.982;11.022;2023-11-19T05:26:23;0.82;;;0.63;;
28836;SDS011;50669;50.982;11.022;2023-11-19T05:28:49;0.90;;;0.70;;
28836;SDS011;50669;50.982;11.022;2023-11-19T05:31:17;1.17;;;0.90;;
28836;SDS011;50669;50.982;11.022;2023-11-19T05:33:43;1.10;;;0.80;;
28836;SDS011;50669;50.982;11.022;2023-11-19T05:36:10;0.80;;;0.60;;
28836;SDS011;50669;50.982;11.022;2023-11-19T05:38:37;0.85;;;0.77;;
28836;SDS011;50669;50.982;11.022;2023-11-19T05:41:08;0.90;;;0.80;;
28836;SDS011;50669;50.982;11.022;2023-11-19T05:43:36;1.10;;;0.73;;
28836;SDS011;50669;50.982;11.022;2023-11-19T05:46:02;1.38;;;0.70;;
28836;SDS011;50669;50.982;11.022;2023-11-19T05:48:30;0.70;;;0.70;;
28836;SDS011;50669;50.982;11.022;2023-11-19T05:50:59;1.30;;;0.85;;
28836;SDS011;50669;50.982;11.022;2023-11-19T05:53:25;0.90;;;0.80;;
28836;SDS011;50669;50.982;11.022;2023-11-19T05:55:53;1.00;;;0.90;;
28836;SDS011;50669;50.982;11.022;2023-11-19T05:58:24;1.00;;;0.80;;
28836;SDS011;50669;50.982;11.022;2023-11-19T06:00:55;0.88;;;0.73;;
28836;SDS011;50669;50.982;11.022;2023-11-19T06:03:23;0.80;;;0.65;;
28836;SDS011;50669;50.982;11.022;2023-11-19T06:05:49;0.80;;;0.60;;
28836;SDS011;50669;50.982;11.022;2023-11-19T06:08:15;0.75;;;0.70;;
28836;SDS011;50669;50.982;11.022;2023-11-19T06:10:41;0.88;;;0.70;;
28836;SDS011;50669;50.982;11.022;2023-11-19T06:13:08;1.15;;;0.90;;
28836;SDS011;50669;50.982;11.022;2023-11-19T06:15:36;0.60;;;0.60;;
28836;SDS011;50669;50.982;11.022;2023-11-19T06:18:02;1.35;;;0.77;;
28836;SDS011;50669;50.982;11.022;2023-11-19T06:20:30;0.70;;;0.65;;
28836;SDS011;50669;50.982;11.022;2023-11-19T06:22:56;1.13;;;0.80;;
28836;SDS011;50669;50.982;11.022;2023-11-19T06:25:23;1.00;;;0.70;;
28836;SDS011;50669;50.982;11.022;2023-11-19T06:27:54;0.80;;;0.70;;
28836;SDS011;50669;50.982;11.022;2023-11-19T06:30:22;0.80;;;0.70;;
28836;SDS011;50669;50.982;11.022;2023-11-19T06:32:51;1.13;;;0.82;;
28836;SDS011;50669;50.982;11.022;2023-11-19T06:35:18;0.77;;;0.70;;
28836;SDS011;50669;50.982;11.022;2023-11-19T06:37:46;1.42;;;0.93;;
28836;SDS011;50669;50.982;11.022;2023-11-19T06:40:12;0.70;;;0.70;;
28836;SDS011;50669;50.982;11.022;2023-11-19T06:42:40;1.38;;;0.82;;
28836;SDS011;50669;50.982;11.022;2023-11-19T06:45:08;1.20;;;0.90;;
28836;SDS011;50669;50.982;11.022;2023-11-19T06:47:36;0.98;;;0.73;;
28836;SDS011;50669;50.982;11.022;2023-11-19T06:50:01;1.10;;;0.70;;
28836;SDS011;50669;50.982;11.022;2023-11-19T06:52:30;0.93;;;0.82;;
28836;SDS011;50669;50.982;11.022;2023-11-19T06:54:56;0.90;;;0.70;;
28836;SDS011;50669;50.982;11.022;2023-11-19T06:57:24;0.90;;;0.60;;
28836;SDS011;50669;50.982;11.022;2023-11-19T06:59:53;0.60;;;0.60;;
28836;SDS011;50669;50.982;11.022;2023-11-19T07:02:19;1.00;;;0.82;;
28836;SDS011;50669;50.982;11.022;2023-11-19T07:04:44;0.95;;;0.88;;
28836;SDS011;50669;50.982;11.022;2023-11-19T07:07:10;0.88;;;0.60;;
28836;SDS011;50669;50.982;11.022;2023-11-19T07:09:39;1.00;;;0.73;;
28836;SDS011;50669;50.982;11.022;2023-11-19T07:12:05;0.90;;;0.70;;
28836;SDS011;50669;50.982;11.022;2023-11-19T07:14:31;1.08;;;0.90;;
28836;SDS011;50669;50.982;11.022;2023-11-19T07:16:57;0.98;;;0.70;;
28836;SDS011;50669;50.982;11.022;2023-11-19T07:19:22;0.88;;;0.82;;
28836;SDS011;50669;50.982;11.022;2023-11-19T07:21:50;0.70;;;0.60;;
28836;SDS011;50669;50.982;11.022;2023-11-19T07:24:19;1.13;;;0.82;;
28836;SDS011;50669;50.982;11.022;2023-11-19T07:26:46;0.90;;;0.60;;
28836;SDS011;50669;50.982;11.022;2023-11-19T07:29:15;1.00;;;0.90;;
28836;SDS011;50669;50.982;11.022;2023-11-19T07:31:43;0.88;;;0.77;;
28836;SDS011;50669;50.982;11.022;2023-11-19T07:34:10;0.82;;;0.75;;
28836;SDS011;50669;50.982;11.022;2023-11-19T07:36:36;0.77;;;0.65;;
28836;SDS011;50669;50.982;11.022;2023-11-19T07:39:03;0.93;;;0.80;;
28836;SDS011;50669;50.982;11.022;2023-11-19T07:41:30;1.00;;;0.70;;
28836;SDS011;50669;50.982;11.022;2023-11-19T07:44:01;0.68;;;0.57;;
28836;SDS011;50669;50.982;11.022;2023-11-19T07:46:27;0.95;;;0.70;;
28836;SDS011;50669;50.982;11.022;2023-11-19T07:48:57;0.95;;;0.70;;
28836;SDS011;50669;50.982;11.022;2023-11-19T07:51:25;1.10;;;0.80;;
28836;SDS011;50669;50.982;11.022;2023-11-19T07:53:50;0.60;;;0.60;;
28836;SDS011;50669;50.982;11.022;2023-11-19T07:56:16;0.77;;;0.60;;
28836;SDS011;50669;50.982;11.022;2023-11-19T07:58:44;0.98;;;0.70;;
28836;SDS011;50669;50.982;11.022;2023-11-19T08:01:09;1.00;;;0.80;;
28836;SDS011;50669;50.982;11.022;2023-11-19T08:03:37;0.70;;;0.60;;
28836;SDS011;50669;50.982;11.022;2023-11-19T08:06:05;0.82;;;0.73;;
28836;SDS011;50669;50.982;11.022;2023-11-19T08:08:34;1.00;;;0.82;;
28836;SDS011;50669;50.982;11.022;2023-11-19T08:11:00;0.95;;;0.55;;
28836;SDS011;50669;50.982;11.022;2023-11-19T08:13:26;0.60;;;0.60;;
28836;SDS011;50669;50.982;11.022;2023-11-19T08:15:52;0.90;;;0.60;;
28836;SDS011;50669;50.982;11.022;2023-11-19T08:18:17;0.85;;;0.70;;
28836;SDS011;50669;50.982;11.022;2023-11-19T08:20:45;0.68;;;0.60;;
28836;SDS011;50669;50.982;11.022;2023-11-19T08:23:17;0.70;;;0.60;;
28836;SDS011;50669;50.982;11.022;2023-11-19T08:25:43;0.70;;;0.60;;
28836;SDS011;50669;50.982;11.022;2023-11-19T08:28:09;0.90;;;0.80;;
28836;SDS011;50669;50.982;11.022;2023-11-19T08:30:40;0.88;;;0.70;;
28836;SDS011;50669;50.982;11.022;2023-11-19T08:33:08;1.10;;;0.63;;
28836;SDS011;50669;50.982;11.022;2023-11-19T08:35:36;0.70;;;0.60;;
28836;SDS011;50669;50.982;11.022;2023-11-19T08:38:04;0.75;;;0.70;;
28836;SDS011;50669;50.982;11.022;2023-11-19T08:40:32;0.60;;;0.60;;
28836;SDS011;50669;50.982;11.022;2023-11-19T08:42:58;0.90;;;0.70;;
28836;SDS011;50669;50.982;11.022;2023-11-19T08:45:24;0.95;;;0.70;;
28836;SDS011;50669;50.982;11.022;2023-11-19T08:47:50;0.73;;;0.70;;
28836;SDS011;50669;50.982;11.022;2023-11-19T08:50:18;0.85;;;0.63;;
28836;SDS011;50669;50.982;11.022;2023-11-19T08:52:44;0.80;;;0.70;;
28836;SDS011;50669;50.982;11.022;2023-11-19T08:55:09;0.98;;;0.80;;
28836;SDS011;50669;50.982;11.022;2023-11-19T08:57:36;0.80;;;0.70;;
28836;SDS011;50669;50.982;11.022;2023-11-19T09:00:02;1.00;;;0.60;;
28836;SDS011;50669;50.982;11.022;2023-11-19T09:02:33;0.77;;;0.70;;
28836;SDS011;50669;50.982;11.022;2023-11-19T09:05:00;0.90;;;0.60;;
28836;SDS011;50669;50.982;11.022;2023-11-19T09:07:28;1.00;;;0.80;;
28836;SDS011;50669;50.982;11.022;2023-11-19T09:09:56;1.08;;;0.82;;
28836;SDS011;50669;50.982;11.022;2023-11-19T09:12:24;0.60;;;0.60;;
28836;SDS011;50669;50.982;11.022;2023-11-19T09:14:52;0.65;;;0.55;;
28836;SDS011;50669;50.982;11.022;2023-11-19T09:17:20;0.80;;;0.60;;
28836;SDS011;50669;50.982;11.022;2023-11-19T09:19:51;0.90;;;0.60;;
28836;SDS011;50669;50.982;11.022;2023-11-19T09:22:16;0.60;;;0.60;;
28836;SDS011;50669;50.982;11.022;2023-11-19T09:24:42;0.98;;;0.70;;
28836;SDS011;50669;50.982;11.022;2023-11-19T09:27:12;0.70;;;0.60;;
28836;SDS011;50669;50.982;11.022;2023-11-19T09:29:37;1.00;;;0.70;;
28836;SDS011;50669;50.982;11.022;2023-11-19T09:32:08;0.90;;;0.70;;
28836;SDS011;50669;50.982;11.022;2023-11-19T09:34:33;0.80;;;0.70;;
28836;SDS011;50669;50.982;11.022;2023-11-19T09:36:59;0.80;;;0.63;;
28836;SDS011;50669;50.982;11.022;2023-11-19T09:39:25;0.73;;;0.52;;
28836;SDS011;50669;50.982;11.022;2023-11-19T09:41:51;0.77;;;0.60;;
28836;SDS011;50669;50.982;11.022;2023-11-19T09:44:17;0.80;;;0.70;;
28836;SDS011;50669;50.982;11.022;2023-11-19T09:46:46;1.13;;;0.60;;
28836;SDS011;50669;50.982;11.022;2023-11-19T09:49:14;1.15;;;0.77;;
28836;SDS011;50669;50.982;11.022;2023-11-19T09:51:43;0.90;;;0.63;;
28836;SDS011;50669;50.982;11.022;2023-11-19T09:54:09;0.70;;;0.65;;
28836;SDS011;50669;50.982;11.022;2023-11-19T09:56:37;0.93;;;0.65;;
28836;SDS011;50669;50.982;11.022;2023-11-19T09:59:04;1.05;;;0.70;;
28836;SDS011;50669;50.982;11.022;2023-11-19T10:01:30;0.73;;;0.60;;
28836;SDS011;50669;50.982;11.022;2023-11-19T10:03:57;0.88;;;0.65;;
28836;SDS011;50669;50.982;11.022;2023-11-19T10:06:25;0.77;;;0.52;;
28836;SDS011;50669;50.982;11.022;2023-11-19T10:08:52;0.80;;;0.57;;
28836;SDS011;50669;50.982;11.022;2023-11-19T10:11:18;0.95;;;0.60;;
28836;SDS011;50669;50.982;11.022;2023-11-19T10:13:46;1.00;;;0.55;;
28836;SDS011;50669;50.982;11.022;2023-11-19T10:16:13;0.60;;;0.50;;
28836;SDS011;50669;50.982;11.022;2023-11-19T10:18:45;1.02;;;0.70;;
28836;SDS011;50669;50.982;11.022;2023-11-19T10:21:17;0.70;;;0.60;;
28836;SDS011;50669;50.982;11.022;2023-11-19T10:23:47;1.13;;;0.70;;
28836;SDS011;50669;50.982;11.022;2023-11-19T10:26:17;0.90;;;0.70;;
28836;SDS011;50669;50.982;11.022;2023-11-19T10:28:45;1.00;;;0.60;;
28836;SDS011;50669;50.982;11.022;2023-11-19T10:31:15;0.68;;;0.60;;
28836;SDS011;50669;50.982;11.022;2023-11-19T10:33:42;1.00;;;0.60;;
28836;SDS011;50669;50.982;11.022;2023-11-19T10:36:10;1.92;;;0.80;;
28836;SDS011;50669;50.982;11.022;2023-11-19T10:38:38;0.90;;;0.70;;
28836;SDS011;50669;50.982;11.022;2023-11-19T10:41:05;0.60;;;0.60;;
28836;SDS011;50669;50.982;11.022;2023-11-19T10:43:31;0.85;;;0.68;;
28836;SDS011;50669;50.982;11.022;2023-11-19T10:46:13;1.05;;;0.65;;
28836;SDS011;50669;50.982;11.022;2023-11-19T10:48:45;0.55;;;0.50;;
28836;SDS011;50669;50.982;11.022;2023-11-19T10:51:11;0.65;;;0.50;;
28836;SDS011;50669;50.982;11.022;2023-11-19T10:53:49;0.93;;;0.70;;
28836;SDS011;50669;50.982;11.022;2023-11-19T10:56:18;0.68;;;0.45;;
28836;SDS011;50669;50.982;11.022;2023-11-19T10:58:50;0.50;;;0.50;;
28836;SDS011;50669;50.982;11.022;2023-11-19T11:01:20;0.73;;;0.50;;
28836;SDS011;50669;50.982;11.022;2023-11-19T11:03:51;1.42;;;0.65;;
28836;SDS011;50669;50.982;11.022;2023-11-19T11:06:19;0.63;;;0.55;;
28836;SDS011;50669;50.982;11.022;2023-11-19T11:08:47;0.70;;;0.50;;
28836;SDS011;50669;50.982;11.022;2023-11-19T11:11:15;0.68;;;0.60;;
28836;SDS011;50669;50.982;11.022;2023-11-19T11:13:46;0.60;;;0.60;;
28836;SDS011;50669;50.982;11.022;2023-11-19T11:16:14;0.80;;;0.60;;
28836;SDS011;50669;50.982;11.022;2023-11-19T11:18:44;0.40;;;0.40;;
28836;SDS011;50669;50.982;11.022;2023-11-19T11:21:11;0.95;;;0.60;;
28836;SDS011;50669;50.982;11.022;2023-11-19T11:27:22;0.90;;;0.50;;
28836;SDS011;50669;50.982;11.022;2023-11-19T11:29:56;0.73;;;0.50;;
28836;SDS011;50669;50.982;11.022;2023-11-19T11:32:33;0.65;;;0.50;;
28836;SDS011;50669;50.982;11.022;2023-11-19T11:38:10;0.47;;;0.45;;
28836;SDS011;50669;50.982;11.022;2023-11-19T11:40:36;0.70;;;0.52;;
28836;SDS011;50669;50.982;11.022;2023-11-19T11:43:04;0.50;;;0.50;;
28836;SDS011;50669;50.982;11.022;2023-11-19T11:45:52;0.65;;;0.60;;
28836;SDS011;50669;50.982;11.022;2023-11-19T11:48:20;0.60;;;0.45;;
28836;SDS011;50669;50.982;11.022;2023-11-19T11:50:49;0.50;;;0.50;;
28836;SDS011;50669;50.982;11.022;2023-11-19T11:53:20;0.82;;;0.60;;
28836;SDS011;50669;50.982;11.022;2023-11-19T12:00:46;0.70;;;0.30;;
28836;SDS011;50669;50.982;11.022;2023-11-19T12:03:16;0.85;;;0.65;;
28836;SDS011;50669;50.982;11.022;2023-11-19T12:05:47;1.27;;;0.70;;
28836;SDS011;50669;50.982;11.022;2023-11-19T12:08:16;0.50;;;0.50;;
28836;SDS011;50669;50.982;11.022;2023-11-19T12:10:54;0.90;;;0.70;;
28836;SDS011;50669;50.982;11.022;2023-11-19T12:13:24;0.80;;;0.60;;
28836;SDS011;50669;50.982;11.022;2023-11-19T12:16:07;0.60;;;0.52;;
28836;SDS011;50669;50.982;11.022;2023-11-19T12:18:33;0.60;;;0.30;;
28836;SDS011;50669;50.982;11.022;2023-11-19T12:21:00;0.85;;;0.60;;
28836;SDS011;50669;50.982;11.022;2023-11-19T12:23:28;0.50;;;0.40;;
28836;SDS011;50669;50.982;11.022;2023-11-19T12:25:54;0.65;;;0.47;;
28836;SDS011;50669;50.982;11.022;2023-11-19T12:28:21;0.73;;;0.68;;
28836;SDS011;50669;50.982;11.022;2023-11-19T12:30:47;0.45;;;0.45;;
28836;SDS011;50669;50.982;11.022;2023-11-19T12:33:13;0.50;;;0.50;;
28836;SDS011;50669;50.982;11.022;2023-11-19T12:35:45;0.50;;;0.40;;
28836;SDS011;50669;50.982;11.022;2023-11-19T12:38:21;0.90;;;0.55;;
28836;SDS011;50669;50.982;11.022;2023-11-19T12:41:06;0.63;;;0.45;;
28836;SDS011;50669;50.982;11.022;2023-11-19T12:43:35;0.60;;;0.40;;
28836;SDS011;50669;50.982;11.022;2023-11-19T12:46:16;0.68;;;0.50;;
28836;SDS011;50669;50.982;11.022;2023-11-19T12:48:43;0.80;;;0.45;;
28836;SDS011;50669;50.982;11.022;2023-11-19T12:51:08;1.25;;;0.65;;
28836;SDS011;50669;50.982;11.022;2023-11-19T12:53:47;0.85;;;0.50;;
28836;SDS011;50669;50.982;11.022;2023-11-19T12:56:23;0.68;;;0.50;;
28836;SDS011;50669;50.982;11.022;2023-11-19T12:58:49;0.95;;;0.60;;
28836;SDS011;50669;50.982;11.022;2023-11-19T13:01:18;1.38;;;0.50;;
28836;SDS011;50669;50.982;11.022;2023-11-19T13:03:45;0.63;;;0.40;;
28836;SDS011;50669;50.982;11.022;2023-11-19T13:06:16;0.60;;;0.45;;
28836;SDS011;50669;50.982;11.022;2023-11-19T13:08:46;0.60;;;0.50;;
28836;SDS011;50669;50.982;11.022;2023-11-19T13:11:15;0.65;;;0.50;;
28836;SDS011;50669;50.982;11.022;2023-11-19T13:14:05;0.75;;;0.50;;
28836;SDS011;50669;50.982;11.022;2023-11-19T13:16:37;0.60;;;0.50;;
28836;SDS011;50669;50.982;11.022;2023-11-19T13:19:06;0.80;;;0.40;;
28836;SDS011;50669;50.982;11.022;2023-11-19T13:21:31;0.43;;;0.40;;
28836;SDS011;50669;50.982;11.022;2023-11-19T13:24:00;0.75;;;0.60;;
28836;SDS011;50669;50.982;11.022;2023-11-19T13:26:25;0.50;;;0.50;;
28836;SDS011;50669;50.982;11.022;2023-11-19T13:28:51;0.57;;;0.50;;
28836;SDS011;50669;50.982;11.022;2023-11-19T13:31:19;0.55;;;0.55;;
28836;SDS011;50669;50.982;11.022;2023-11-19T13:33:44;0.70;;;0.50;;
28836;SDS011;50669;50.982;11.022;2023-11-19T13:36:15;0.70;;;0.55;;
28836;SDS011;50669;50.982;11.022;2023-11-19T13:38:43;0.50;;;0.40;;
28836;SDS011;50669;50.982;11.022;2023-11-19T13:41:12;0.65;;;0.43;;
28836;SDS011;50669;50.982;11.022;2023-11-19T13:43:40;0.85;;;0.50;;
28836;SDS011;50669;50.982;11.022;2023-11-19T13:46:08;0.50;;;0.50;;
28836;SDS011;50669;50.982;11.022;2023-11-19T13:48:36;0.93;;;0.50;;
28836;SDS011;50669;50.982;11.022;2023-11-19T13:51:04;0.85;;;0.60;;
28836;SDS011;50669;50.982;11.022;2023-11-19T13:53:30;0.95;;;0.60;;
28836;SDS011;50669;50.982;11.022;2023-11-19T13:55:58;0.73;;;0.47;;
28836;SDS011;50669;50.982;11.022;2023-11-19T13:58:24;0.85;;;0.52;;
28836;SDS011;50669;50.982;11.022;2023-11-19T14:00:50;0.77;;;0.50;;
28836;SDS011;50669;50.982;11.022;2023-11-19T14:03:16;0.65;;;0.47;;
28836;SDS011;50669;50.982;11.022;2023-11-19T14:05:43;0.80;;;0.40;;
28836;SDS011;50669;50.982;11.022;2023-11-19T14:08:12;0.93;;;0.50;;
28836;SDS011;50669;50.982;11.022;2023-11-19T14:10:40;0.60;;;0.43;;
28836;SDS011;50669;50.982;11.022;2023-11-19T14:13:08;0.57;;;0.50;;
28836;SDS011;50669;50.982;11.022;2023-11-19T14:15:36;0.35;;;0.35;;
28836;SDS011;50669;50.982;11.022;2023-11-19T14:18:02;0.82;;;0.50;;
28836;SDS011;50669;50.982;11.022;2023-11-19T14:20:28;0.80;;;0.45;;
28836;SDS011;50669;50.982;11.022;2023-11-19T14:22:54;0.88;;;0.60;;
28836;SDS011;50669;50.982;11.022;2023-11-19T14:25:22;1.42;;;0.55;;
28836;SDS011;50669;50.982;11.022;2023-11-19T14:27:48;0.45;;;0.43;;
28836;SDS011;50669;50.982;11.022;2023-11-19T14:30:14;0.57;;;0.40;;
28836;SDS011;50669;50.982;11.022;2023-11-19T14:32:40;0.55;;;0.50;;
28836;SDS011;50669;50.982;11.022;2023-11-19T14:35:08;0.60;;;0.40;;
28836;SDS011;50669;50.982;11.022;2023-11-19T14:37:35;0.95;;;0.50;;
28836;SDS011;50669;50.982;11.022;2023-11-19T14:40:03;0.60;;;0.50;;
28836;SDS011;50669;50.982;11.022;2023-11-19T14:42:32;0.50;;;0.30;;
28836;SDS011;50669;50.982;11.022;2023-11-19T14:45:00;0.52;;;0.40;;
28836;SDS011;50669;50.982;11.022;2023-11-19T14:47:26;0.60;;;0.60;;
28836;SDS011;50669;50.982;11.022;2023-11-19T14:49:52;0.50;;;0.40;;
28836;SDS011;50669;50.982;11.022;2023-11-19T14:52:17;0.85;;;0.50;;